sensor_id;sensor_type;location;lat;lon;timestamp;P1;durP1;ratioP1;P2;durP2;ratioP2
33108;SDS011;19481;51.118;6.940;2022-10-22T00:02:44;8.00;;;2.30;;
33108;SDS011;19481;51.118;6.940;2022-10-22T00:07:46;5.28;;;2.00;;
33108;SDS011;19481;51.118;6.940;2022-10-22T00:12:48;4.93;;;2.45;;
33108;SDS011;19481;51.118;6.940;2022-10-22T00:17:50;6.93;;;2.17;;
33108;SDS011;19481;51.118;6.940;2022-10-22T00:22:53;8.43;;;1.98;;
33108;SDS011;19481;51.118;6.940;2022-10-22T00:27:54;5.68;;;2.22;;
33108;SDS011;19481;51.118;6.940;2022-10-22T00:32:56;3.58;;;1.92;;
33108;SDS011;19481;51.118;6.940;2022-10-22T00:37:59;3.65;;;2.40;;
33108;SDS011;19481;51.118;6.940;2022-10-22T00:43:00;13.65;;;2.25;;
33108;SDS011;19481;51.118;6.940;2022-10-22T00:48:02;6.03;;;2.13;;
33108;SDS011;19481;51.118;6.940;2022-10-22T00:53:09;6.35;;;2.03;;
33108;SDS011;19481;51.118;6.940;2022-10-22T00:58:13;6.40;;;2.58;;
33108;SDS011;19481;51.118;6.940;2022-10-22T01:03:15;4.97;;;1.88;;
33108;SDS011;19481;51.118;6.940;2022-10-22T01:08:21;7.35;;;2.20;;
33108;SDS011;19481;51.118;6.940;2022-10-22T01:13:30;3.58;;;2.25;;
33108;SDS011;19481;51.118;6.940;2022-10-22T01:18:41;2.20;;;1.90;;
33108;SDS011;19481;51.118;6.940;2022-10-22T01:29:32;4.03;;;1.70;;
33108;SDS011;19481;51.118;6.940;2022-10-22T01:39:40;6.80;;;2.20;;
33108;SDS011;19481;51.118;6.940;2022-10-22T01:44:45;3.67;;;2.10;;
33108;SDS011;19481;51.118;6.940;2022-10-22T01:49:52;7.75;;;2.60;;
33108;SDS011;19481;51.118;6.940;2022-10-22T01:55:12;5.57;;;2.45;;
33108;SDS011;19481;51.118;6.940;2022-10-22T02:00:21;4.40;;;1.85;;
33108;SDS011;19481;51.118;6.940;2022-10-22T02:05:24;6.90;;;2.28;;
33108;SDS011;19481;51.118;6.940;2022-10-22T02:10:33;3.42;;;2.00;;
33108;SDS011;19481;51.118;6.940;2022-10-22T02:15:39;3.78;;;1.90;;
33108;SDS011;19481;51.118;6.940;2022-10-22T02:20:43;6.97;;;2.30;;
33108;SDS011;19481;51.118;6.940;2022-10-22T02:25:47;4.00;;;2.20;;
33108;SDS011;19481;51.118;6.940;2022-10-22T02:30:56;3.88;;;2.33;;
33108;SDS011;19481;51.118;6.940;2022-10-22T02:36:02;6.82;;;2.55;;
33108;SDS011;19481;51.118;6.940;2022-10-22T02:41:06;6.72;;;2.25;;
33108;SDS011;19481;51.118;6.940;2022-10-22T02:46:09;4.70;;;1.98;;
33108;SDS011;19481;51.118;6.940;2022-10-22T02:51:11;3.28;;;2.40;;
33108;SDS011;19481;51.118;6.940;2022-10-22T02:56:13;4.75;;;2.30;;
33108;SDS011;19481;51.118;6.940;2022-10-22T03:01:16;4.72;;;2.22;;
33108;SDS011;19481;51.118;6.940;2022-10-22T03:06:17;4.07;;;2.10;;
33108;SDS011;19481;51.118;6.940;2022-10-22T03:11:19;4.22;;;2.40;;
33108;SDS011;19481;51.118;6.940;2022-10-22T03:16:22;4.43;;;2.33;;
33108;SDS011;19481;51.118;6.940;2022-10-22T03:21:25;4.35;;;2.03;;
33108;SDS011;19481;51.118;6.940;2022-10-22T03:26:31;6.82;;;2.42;;
33108;SDS011;19481;51.118;6.940;2022-10-22T03:31:35;4.07;;;2.72;;
33108;SDS011;19481;51.118;6.940;2022-10-22T03:36:36;5.15;;;2.63;;
33108;SDS011;19481;51.118;6.940;2022-10-22T03:41:39;7.80;;;2.72;;
33108;SDS011;19481;51.118;6.940;2022-10-22T03:46:43;6.72;;;2.90;;
33108;SDS011;19481;51.118;6.940;2022-10-22T03:51:44;6.00;;;2.50;;
33108;SDS011;19481;51.118;6.940;2022-10-22T03:56:46;6.70;;;2.97;;
33108;SDS011;19481;51.118;6.940;2022-10-22T04:01:49;9.30;;;2.95;;
33108;SDS011;19481;51.118;6.940;2022-10-22T04:06:50;4.97;;;2.50;;
33108;SDS011;19481;51.118;6.940;2022-10-22T04:11:52;4.63;;;2.60;;
33108;SDS011;19481;51.118;6.940;2022-10-22T04:16:55;6.22;;;3.00;;
33108;SDS011;19481;51.118;6.940;2022-10-22T04:21:57;4.40;;;2.60;;
33108;SDS011;19481;51.118;6.940;2022-10-22T04:26:58;6.18;;;3.25;;
33108;SDS011;19481;51.118;6.940;2022-10-22T04:32:01;5.85;;;2.90;;
33108;SDS011;19481;51.118;6.940;2022-10-22T04:37:03;7.82;;;3.30;;
33108;SDS011;19481;51.118;6.940;2022-10-22T04:42:05;9.32;;;3.38;;
33108;SDS011;19481;51.118;6.940;2022-10-22T04:47:08;9.48;;;3.80;;
33108;SDS011;19481;51.118;6.940;2022-10-22T04:52:09;6.85;;;3.47;;
33108;SDS011;19481;51.118;6.940;2022-10-22T04:57:11;9.88;;;3.75;;
33108;SDS011;19481;51.118;6.940;2022-10-22T05:02:15;5.90;;;3.58;;
33108;SDS011;19481;51.118;6.940;2022-10-22T05:07:16;6.40;;;3.55;;
33108;SDS011;19481;51.118;6.940;2022-10-22T05:12:18;6.38;;;3.58;;
33108;SDS011;19481;51.118;6.940;2022-10-22T05:17:21;6.45;;;3.88;;
33108;SDS011;19481;51.118;6.940;2022-10-22T05:22:23;6.55;;;3.33;;
33108;SDS011;19481;51.118;6.940;2022-10-22T05:27:24;6.40;;;3.15;;
33108;SDS011;19481;51.118;6.940;2022-10-22T05:32:28;5.68;;;3.30;;
33108;SDS011;19481;51.118;6.940;2022-10-22T05:37:29;4.43;;;3.03;;
33108;SDS011;19481;51.118;6.940;2022-10-22T05:42:31;8.85;;;3.17;;
33108;SDS011;19481;51.118;6.940;2022-10-22T05:47:34;5.90;;;3.13;;
33108;SDS011;19481;51.118;6.940;2022-10-22T05:52:36;3.80;;;3.13;;
33108;SDS011;19481;51.118;6.940;2022-10-22T05:57:38;5.68;;;3.00;;
33108;SDS011;19481;51.118;6.940;2022-10-22T06:02:41;7.47;;;3.05;;
33108;SDS011;19481;51.118;6.940;2022-10-22T06:07:43;9.40;;;3.40;;
33108;SDS011;19481;51.118;6.940;2022-10-22T06:12:45;6.93;;;3.63;;
33108;SDS011;19481;51.118;6.940;2022-10-22T06:17:48;6.07;;;3.70;;
33108;SDS011;19481;51.118;6.940;2022-10-22T06:22:49;5.82;;;3.20;;
33108;SDS011;19481;51.118;6.940;2022-10-22T06:27:51;6.15;;;3.30;;
33108;SDS011;19481;51.118;6.940;2022-10-22T06:32:54;6.43;;;3.45;;
33108;SDS011;19481;51.118;6.940;2022-10-22T06:37:56;5.15;;;3.13;;
33108;SDS011;19481;51.118;6.940;2022-10-22T06:42:57;5.05;;;3.60;;
33108;SDS011;19481;51.118;6.940;2022-10-22T06:48:01;7.85;;;3.60;;
33108;SDS011;19481;51.118;6.940;2022-10-22T06:53:02;5.82;;;3.83;;
33108;SDS011;19481;51.118;6.940;2022-10-22T06:58:04;3.90;;;3.20;;
33108;SDS011;19481;51.118;6.940;2022-10-22T07:03:07;7.97;;;3.63;;
33108;SDS011;19481;51.118;6.940;2022-10-22T07:08:12;7.13;;;3.67;;
33108;SDS011;19481;51.118;6.940;2022-10-22T07:13:13;9.57;;;3.50;;
33108;SDS011;19481;51.118;6.940;2022-10-22T07:18:16;8.10;;;3.60;;
33108;SDS011;19481;51.118;6.940;2022-10-22T07:23:18;8.30;;;3.15;;
33108;SDS011;19481;51.118;6.940;2022-10-22T07:28:19;4.43;;;2.88;;
33108;SDS011;19481;51.118;6.940;2022-10-22T07:33:23;3.97;;;2.63;;
33108;SDS011;19481;51.118;6.940;2022-10-22T07:38:24;5.43;;;2.47;;
33108;SDS011;19481;51.118;6.940;2022-10-22T07:43:26;5.03;;;2.38;;
33108;SDS011;19481;51.118;6.940;2022-10-22T07:48:29;5.13;;;2.50;;
33108;SDS011;19481;51.118;6.940;2022-10-22T07:53:31;7.45;;;2.45;;
33108;SDS011;19481;51.118;6.940;2022-10-22T07:58:33;6.03;;;2.53;;
33108;SDS011;19481;51.118;6.940;2022-10-22T08:03:36;7.50;;;2.25;;
33108;SDS011;19481;51.118;6.940;2022-10-22T08:08:38;5.10;;;2.03;;
33108;SDS011;19481;51.118;6.940;2022-10-22T08:13:40;7.55;;;2.13;;
33108;SDS011;19481;51.118;6.940;2022-10-22T08:18:43;7.38;;;2.42;;
33108;SDS011;19481;51.118;6.940;2022-10-22T08:23:45;6.20;;;2.20;;
33108;SDS011;19481;51.118;6.940;2022-10-22T08:28:47;6.93;;;2.15;;
33108;SDS011;19481;51.118;6.940;2022-10-22T08:33:50;5.43;;;2.20;;
33108;SDS011;19481;51.118;6.940;2022-10-22T08:38:51;4.93;;;2.35;;
33108;SDS011;19481;51.118;6.940;2022-10-22T08:43:57;4.03;;;1.92;;
33108;SDS011;19481;51.118;6.940;2022-10-22T08:49:13;4.85;;;1.67;;
33108;SDS011;19481;51.118;6.940;2022-10-22T08:54:28;2.90;;;1.73;;
33108;SDS011;19481;51.118;6.940;2022-10-22T08:59:38;5.00;;;1.80;;
33108;SDS011;19481;51.118;6.940;2022-10-22T09:04:48;4.90;;;1.67;;
33108;SDS011;19481;51.118;6.940;2022-10-22T09:09:54;4.65;;;1.92;;
33108;SDS011;19481;51.118;6.940;2022-10-22T09:14:59;6.32;;;2.40;;
33108;SDS011;19481;51.118;6.940;2022-10-22T09:20:05;4.30;;;1.90;;
33108;SDS011;19481;51.118;6.940;2022-10-22T09:25:18;1.80;;;1.48;;
33108;SDS011;19481;51.118;6.940;2022-10-22T09:30:22;5.75;;;1.55;;
33108;SDS011;19481;51.118;6.940;2022-10-22T09:35:27;7.30;;;1.38;;
33108;SDS011;19481;51.118;6.940;2022-10-22T09:40:40;4.20;;;1.27;;
33108;SDS011;19481;51.118;6.940;2022-10-22T09:45:44;1.90;;;1.30;;
33108;SDS011;19481;51.118;6.940;2022-10-22T09:50:48;4.07;;;1.65;;
33108;SDS011;19481;51.118;6.940;2022-10-22T09:55:56;3.33;;;1.23;;
33108;SDS011;19481;51.118;6.940;2022-10-22T10:00:59;2.08;;;0.98;;
33108;SDS011;19481;51.118;6.940;2022-10-22T10:06:02;4.10;;;1.08;;
33108;SDS011;19481;51.118;6.940;2022-10-22T10:11:07;4.85;;;1.10;;
33108;SDS011;19481;51.118;6.940;2022-10-22T10:16:23;4.28;;;0.98;;
33108;SDS011;19481;51.118;6.940;2022-10-22T10:21:33;2.25;;;1.20;;
33108;SDS011;19481;51.118;6.940;2022-10-22T10:26:47;4.78;;;1.00;;
33108;SDS011;19481;51.118;6.940;2022-10-22T10:31:59;3.00;;;1.17;;
33108;SDS011;19481;51.118;6.940;2022-10-22T10:37:15;2.70;;;1.20;;
33108;SDS011;19481;51.118;6.940;2022-10-22T10:42:21;2.88;;;2.10;;
33108;SDS011;19481;51.118;6.940;2022-10-22T10:47:35;5.88;;;1.48;;
33108;SDS011;19481;51.118;6.940;2022-10-22T10:52:52;5.32;;;0.98;;
33108;SDS011;19481;51.118;6.940;2022-10-22T10:58:02;7.40;;;1.30;;
33108;SDS011;19481;51.118;6.940;2022-10-22T11:03:21;4.78;;;1.50;;
33108;SDS011;19481;51.118;6.940;2022-10-22T11:08:59;1.63;;;1.00;;
33108;SDS011;19481;51.118;6.940;2022-10-22T11:14:08;3.78;;;0.93;;
33108;SDS011;19481;51.118;6.940;2022-10-22T11:19:15;4.32;;;0.90;;
33108;SDS011;19481;51.118;6.940;2022-10-22T11:24:23;4.75;;;1.20;;
33108;SDS011;19481;51.118;6.940;2022-10-22T11:29:30;4.53;;;1.10;;
33108;SDS011;19481;51.118;6.940;2022-10-22T11:34:39;4.93;;;0.82;;
33108;SDS011;19481;51.118;6.940;2022-10-22T11:39:49;2.15;;;0.80;;
33108;SDS011;19481;51.118;6.940;2022-10-22T11:44:59;3.53;;;1.10;;
33108;SDS011;19481;51.118;6.940;2022-10-22T11:50:15;4.85;;;1.10;;
33108;SDS011;19481;51.118;6.940;2022-10-22T11:55:41;8.25;;;1.60;;
33108;SDS011;19481;51.118;6.940;2022-10-22T12:00:47;7.37;;;1.07;;
33108;SDS011;19481;51.118;6.940;2022-10-22T12:06:01;5.00;;;0.73;;
33108;SDS011;19481;51.118;6.940;2022-10-22T12:11:16;3.90;;;1.00;;
33108;SDS011;19481;51.118;6.940;2022-10-22T12:16:22;3.97;;;0.98;;
33108;SDS011;19481;51.118;6.940;2022-10-22T12:21:24;3.28;;;0.75;;
33108;SDS011;19481;51.118;6.940;2022-10-22T12:26:28;2.53;;;1.15;;
33108;SDS011;19481;51.118;6.940;2022-10-22T12:31:34;3.03;;;0.90;;
33108;SDS011;19481;51.118;6.940;2022-10-22T12:36:37;2.92;;;1.10;;
33108;SDS011;19481;51.118;6.940;2022-10-22T12:41:40;3.20;;;1.05;;
33108;SDS011;19481;51.118;6.940;2022-10-22T12:46:43;3.83;;;1.30;;
33108;SDS011;19481;51.118;6.940;2022-10-22T12:51:46;4.43;;;3.05;;
33108;SDS011;19481;51.118;6.940;2022-10-22T12:56:51;4.50;;;1.60;;
33108;SDS011;19481;51.118;6.940;2022-10-22T13:01:53;6.03;;;1.05;;
33108;SDS011;19481;51.118;6.940;2022-10-22T13:07:03;5.35;;;1.60;;
33108;SDS011;19481;51.118;6.940;2022-10-22T13:12:22;4.65;;;1.10;;
33108;SDS011;19481;51.118;6.940;2022-10-22T13:17:36;3.00;;;1.02;;
33108;SDS011;19481;51.118;6.940;2022-10-22T13:22:40;2.17;;;0.90;;
33108;SDS011;19481;51.118;6.940;2022-10-22T13:27:54;6.00;;;0.98;;
33108;SDS011;19481;51.118;6.940;2022-10-22T13:32:57;1.15;;;0.82;;
33108;SDS011;19481;51.118;6.940;2022-10-22T13:38:00;0.80;;;0.63;;
33108;SDS011;19481;51.118;6.940;2022-10-22T13:43:04;2.75;;;0.90;;
33108;SDS011;19481;51.118;6.940;2022-10-22T13:48:07;3.10;;;1.00;;
33108;SDS011;19481;51.118;6.940;2022-10-22T13:53:14;6.03;;;3.50;;
33108;SDS011;19481;51.118;6.940;2022-10-22T13:58:19;5.03;;;1.65;;
33108;SDS011;19481;51.118;6.940;2022-10-22T14:03:24;3.63;;;1.00;;
33108;SDS011;19481;51.118;6.940;2022-10-22T14:08:28;4.90;;;1.45;;
33108;SDS011;19481;51.118;6.940;2022-10-22T14:13:31;4.03;;;0.82;;
33108;SDS011;19481;51.118;6.940;2022-10-22T14:18:33;2.55;;;1.00;;
33108;SDS011;19481;51.118;6.940;2022-10-22T14:23:35;3.08;;;0.95;;
33108;SDS011;19481;51.118;6.940;2022-10-22T14:28:38;3.78;;;1.95;;
33108;SDS011;19481;51.118;6.940;2022-10-22T14:33:40;2.47;;;1.17;;
33108;SDS011;19481;51.118;6.940;2022-10-22T14:38:42;2.75;;;0.80;;
33108;SDS011;19481;51.118;6.940;2022-10-22T14:43:46;4.13;;;0.98;;
33108;SDS011;19481;51.118;6.940;2022-10-22T14:48:48;4.18;;;1.05;;
33108;SDS011;19481;51.118;6.940;2022-10-22T14:53:50;1.13;;;0.80;;
33108;SDS011;19481;51.118;6.940;2022-10-22T14:58:53;2.13;;;0.80;;
33108;SDS011;19481;51.118;6.940;2022-10-22T15:03:54;3.17;;;1.30;;
33108;SDS011;19481;51.118;6.940;2022-10-22T15:08:56;5.72;;;0.80;;
33108;SDS011;19481;51.118;6.940;2022-10-22T15:13:59;1.63;;;0.82;;
33108;SDS011;19481;51.118;6.940;2022-10-22T15:19:01;2.40;;;0.80;;
33108;SDS011;19481;51.118;6.940;2022-10-22T15:24:02;2.28;;;0.82;;
33108;SDS011;19481;51.118;6.940;2022-10-22T15:29:08;1.90;;;0.90;;
33108;SDS011;19481;51.118;6.940;2022-10-22T15:34:10;2.80;;;0.90;;
33108;SDS011;19481;51.118;6.940;2022-10-22T15:39:11;4.20;;;0.90;;
33108;SDS011;19481;51.118;6.940;2022-10-22T15:44:15;4.80;;;1.00;;
33108;SDS011;19481;51.118;6.940;2022-10-22T15:49:17;2.78;;;1.25;;
33108;SDS011;19481;51.118;6.940;2022-10-22T15:54:21;1.58;;;1.23;;
33108;SDS011;19481;51.118;6.940;2022-10-22T15:59:25;2.30;;;0.93;;
33108;SDS011;19481;51.118;6.940;2022-10-22T16:04:27;2.83;;;1.55;;
33108;SDS011;19481;51.118;6.940;2022-10-22T16:09:28;4.13;;;2.22;;
33108;SDS011;19481;51.118;6.940;2022-10-22T16:14:31;5.47;;;2.53;;
33108;SDS011;19481;51.118;6.940;2022-10-22T16:19:33;11.25;;;5.63;;
33108;SDS011;19481;51.118;6.940;2022-10-22T16:24:35;18.15;;;9.07;;
33108;SDS011;19481;51.118;6.940;2022-10-22T16:29:40;10.65;;;6.18;;
33108;SDS011;19481;51.118;6.940;2022-10-22T16:34:43;7.78;;;3.45;;
33108;SDS011;19481;51.118;6.940;2022-10-22T16:39:45;4.18;;;2.20;;
33108;SDS011;19481;51.118;6.940;2022-10-22T16:44:48;7.07;;;1.88;;
33108;SDS011;19481;51.118;6.940;2022-10-22T16:49:49;8.43;;;2.10;;
33108;SDS011;19481;51.118;6.940;2022-10-22T16:54:51;4.57;;;2.45;;
33108;SDS011;19481;51.118;6.940;2022-10-22T16:59:54;4.38;;;2.10;;
33108;SDS011;19481;51.118;6.940;2022-10-22T17:04:55;5.72;;;2.58;;
33108;SDS011;19481;51.118;6.940;2022-10-22T17:09:57;3.75;;;2.05;;
33108;SDS011;19481;51.118;6.940;2022-10-22T17:15:01;7.07;;;2.63;;
33108;SDS011;19481;51.118;6.940;2022-10-22T17:20:04;4.80;;;3.05;;
33108;SDS011;19481;51.118;6.940;2022-10-22T17:25:08;6.25;;;2.88;;
33108;SDS011;19481;51.118;6.940;2022-10-22T17:30:15;12.85;;;3.45;;
33108;SDS011;19481;51.118;6.940;2022-10-22T17:35:18;4.10;;;2.63;;
33108;SDS011;19481;51.118;6.940;2022-10-22T17:40:20;6.82;;;2.28;;
33108;SDS011;19481;51.118;6.940;2022-10-22T17:45:23;3.85;;;1.92;;
33108;SDS011;19481;51.118;6.940;2022-10-22T17:50:24;5.72;;;2.67;;
33108;SDS011;19481;51.118;6.940;2022-10-22T17:55:26;5.70;;;2.53;;
33108;SDS011;19481;51.118;6.940;2022-10-22T18:00:29;8.02;;;2.72;;
33108;SDS011;19481;51.118;6.940;2022-10-22T18:05:32;8.98;;;2.30;;
33108;SDS011;19481;51.118;6.940;2022-10-22T18:10:37;3.15;;;2.22;;
33108;SDS011;19481;51.118;6.940;2022-10-22T18:15:41;5.25;;;2.58;;
33108;SDS011;19481;51.118;6.940;2022-10-22T18:20:46;5.30;;;1.92;;
33108;SDS011;19481;51.118;6.940;2022-10-22T18:25:48;4.35;;;2.00;;
33108;SDS011;19481;51.118;6.940;2022-10-22T18:30:51;4.82;;;2.00;;
33108;SDS011;19481;51.118;6.940;2022-10-22T18:35:53;7.38;;;2.10;;
33108;SDS011;19481;51.118;6.940;2022-10-22T18:40:55;4.40;;;1.88;;
33108;SDS011;19481;51.118;6.940;2022-10-22T18:45:58;4.80;;;2.53;;
33108;SDS011;19481;51.118;6.940;2022-10-22T18:51:01;4.05;;;2.47;;
33108;SDS011;19481;51.118;6.940;2022-10-22T18:56:04;13.52;;;2.63;;
33108;SDS011;19481;51.118;6.940;2022-10-22T19:01:08;5.22;;;2.40;;
33108;SDS011;19481;51.118;6.940;2022-10-22T19:06:11;3.60;;;2.15;;
33108;SDS011;19481;51.118;6.940;2022-10-22T19:11:14;8.13;;;2.47;;
33108;SDS011;19481;51.118;6.940;2022-10-22T19:16:19;5.55;;;3.08;;
33108;SDS011;19481;51.118;6.940;2022-10-22T19:21:23;6.93;;;2.58;;
33108;SDS011;19481;51.118;6.940;2022-10-22T19:26:25;6.07;;;3.17;;
33108;SDS011;19481;51.118;6.940;2022-10-22T19:31:29;6.57;;;3.33;;
33108;SDS011;19481;51.118;6.940;2022-10-22T19:36:31;4.47;;;2.75;;
33108;SDS011;19481;51.118;6.940;2022-10-22T19:41:33;2.85;;;2.13;;
33108;SDS011;19481;51.118;6.940;2022-10-22T19:46:37;6.93;;;2.22;;
33108;SDS011;19481;51.118;6.940;2022-10-22T19:51:38;2.53;;;1.80;;
33108;SDS011;19481;51.118;6.940;2022-10-22T19:56:40;3.90;;;2.20;;
33108;SDS011;19481;51.118;6.940;2022-10-22T20:01:43;7.15;;;2.17;;
33108;SDS011;19481;51.118;6.940;2022-10-22T20:06:44;9.50;;;3.03;;
33108;SDS011;19481;51.118;6.940;2022-10-22T20:11:46;7.20;;;2.13;;
33108;SDS011;19481;51.118;6.940;2022-10-22T20:16:49;5.63;;;2.35;;
33108;SDS011;19481;51.118;6.940;2022-10-22T20:21:51;5.72;;;2.28;;
33108;SDS011;19481;51.118;6.940;2022-10-22T20:26:53;6.70;;;2.10;;
33108;SDS011;19481;51.118;6.940;2022-10-22T20:31:56;9.73;;;2.72;;
33108;SDS011;19481;51.118;6.940;2022-10-22T20:36:59;5.25;;;2.50;;
33108;SDS011;19481;51.118;6.940;2022-10-22T20:42:02;7.57;;;2.20;;
33108;SDS011;19481;51.118;6.940;2022-10-22T20:47:05;11.13;;;1.98;;
33108;SDS011;19481;51.118;6.940;2022-10-22T20:52:08;3.83;;;2.33;;
33108;SDS011;19481;51.118;6.940;2022-10-22T20:57:10;5.25;;;2.50;;
33108;SDS011;19481;51.118;6.940;2022-10-22T21:02:14;8.85;;;2.22;;
33108;SDS011;19481;51.118;6.940;2022-10-22T21:07:15;9.95;;;2.17;;
33108;SDS011;19481;51.118;6.940;2022-10-22T21:12:17;6.00;;;1.92;;
33108;SDS011;19481;51.118;6.940;2022-10-22T21:17:20;7.05;;;1.85;;
33108;SDS011;19481;51.118;6.940;2022-10-22T21:22:21;14.88;;;1.83;;
33108;SDS011;19481;51.118;6.940;2022-10-22T21:27:23;6.13;;;2.00;;
33108;SDS011;19481;51.118;6.940;2022-10-22T21:32:26;4.55;;;1.95;;
33108;SDS011;19481;51.118;6.940;2022-10-22T21:37:27;3.70;;;1.95;;
33108;SDS011;19481;51.118;6.940;2022-10-22T21:42:29;8.23;;;2.40;;
33108;SDS011;19481;51.118;6.940;2022-10-22T21:47:32;8.13;;;2.10;;
33108;SDS011;19481;51.118;6.940;2022-10-22T21:52:34;6.60;;;2.30;;
33108;SDS011;19481;51.118;6.940;2022-10-22T21:57:36;6.57;;;2.30;;
33108;SDS011;19481;51.118;6.940;2022-10-22T22:02:39;8.48;;;2.25;;
33108;SDS011;19481;51.118;6.940;2022-10-22T22:07:40;6.22;;;2.25;;
33108;SDS011;19481;51.118;6.940;2022-10-22T22:12:42;3.72;;;2.30;;
33108;SDS011;19481;51.118;6.940;2022-10-22T22:17:45;5.90;;;2.20;;
33108;SDS011;19481;51.118;6.940;2022-10-22T22:22:46;7.80;;;2.03;;
33108;SDS011;19481;51.118;6.940;2022-10-22T22:27:48;6.30;;;2.15;;
33108;SDS011;19481;51.118;6.940;2022-10-22T22:32:51;5.55;;;2.00;;
33108;SDS011;19481;51.118;6.940;2022-10-22T22:37:53;5.00;;;1.88;;
33108;SDS011;19481;51.118;6.940;2022-10-22T22:42:54;4.13;;;1.55;;
33108;SDS011;19481;51.118;6.940;2022-10-22T22:47:57;6.07;;;1.63;;
33108;SDS011;19481;51.118;6.940;2022-10-22T22:52:59;5.35;;;1.98;;
33108;SDS011;19481;51.118;6.940;2022-10-22T22:58:00;8.38;;;2.67;;
33108;SDS011;19481;51.118;6.940;2022-10-22T23:03:03;5.88;;;1.83;;
33108;SDS011;19481;51.118;6.940;2022-10-22T23:08:05;7.70;;;1.95;;
33108;SDS011;19481;51.118;6.940;2022-10-22T23:13:06;6.03;;;2.10;;
33108;SDS011;19481;51.118;6.940;2022-10-22T23:18:09;8.25;;;1.85;;
33108;SDS011;19481;51.118;6.940;2022-10-22T23:23:11;3.08;;;1.70;;
33108;SDS011;19481;51.118;6.940;2022-10-22T23:28:12;6.97;;;2.10;;
33108;SDS011;19481;51.118;6.940;2022-10-22T23:33:15;3.25;;;1.60;;
33108;SDS011;19481;51.118;6.940;2022-10-22T23:38:18;3.60;;;1.98;;
33108;SDS011;19481;51.118;6.940;2022-10-22T23:43:19;6.35;;;1.50;;
33108;SDS011;19481;51.118;6.940;2022-10-22T23:48:22;2.00;;;1.60;;
33108;SDS011;19481;51.118;6.940;2022-10-22T23:53:24;4.15;;;1.92;;
33108;SDS011;19481;51.118;6.940;2022-10-22T23:58:26;10.18;;;2.30;;
